createdAt,value
2023-03-05T00:02:09.623Z,0.72
2023-03-05T00:04:36.131Z,0.55
2023-03-05T00:07:03.077Z,0.73
2023-03-05T00:09:29.540Z,0.89
2023-03-05T00:11:56.027Z,0.99
2023-03-05T00:14:22.420Z,0.74
2023-03-05T00:16:48.888Z,0.99
2023-03-05T00:19:15.336Z,-0.09
2023-03-05T00:21:41.788Z,0.58
2023-03-05T00:24:08.181Z,0.45
2023-03-05T00:26:34.674Z,0.62
2023-03-05T00:29:01.507Z,0.93
2023-03-05T00:31:27.940Z,1.09
2023-03-05T00:33:54.450Z,0.89
2023-03-05T00:36:20.910Z,0.82
2023-03-05T00:38:47.822Z,0.60
2023-03-05T00:41:14.294Z,0.13
2023-03-05T00:43:40.785Z,0.53
2023-03-05T00:46:07.193Z,0.88
2023-03-05T00:48:33.588Z,0.69
2023-03-05T00:51:00.207Z,0.42
2023-03-05T00:53:26.641Z,0.23
2023-03-05T00:55:53.109Z,0.25
2023-03-05T00:58:19.653Z,0.50
2023-03-05T01:00:46.392Z,0.51
2023-03-05T01:03:15.370Z,0.20
2023-03-05T01:05:41.815Z,0.46
2023-03-05T01:08:08.522Z,0.43
2023-03-05T01:10:34.988Z,0.34
2023-03-05T01:13:01.427Z,0.21
2023-03-05T01:15:27.869Z,-0.35
2023-03-05T01:17:54.364Z,-0.62
2023-03-05T01:20:20.802Z,-0.79
2023-03-05T01:22:48.019Z,0.12
2023-03-05T01:25:14.458Z,0.09
2023-03-05T01:27:40.904Z,0.02
2023-03-05T01:30:07.453Z,-0.09
2023-03-05T01:32:35.462Z,-0.37
2023-03-05T01:35:02.173Z,-0.28
2023-03-05T01:37:28.748Z,0.01
2023-03-05T01:39:55.230Z,0.09
2023-03-05T01:42:21.622Z,-0.23
2023-03-05T01:44:48.225Z,0.05
2023-03-05T01:47:14.844Z,-0.27
2023-03-05T01:49:41.221Z,-0.14
2023-03-05T01:52:07.671Z,-0.25
2023-03-05T01:54:34.149Z,-0.32
2023-03-05T01:57:00.688Z,-0.13
2023-03-05T01:59:27.136Z,-0.28
2023-03-05T02:01:53.552Z,-0.25
2023-03-05T02:04:20.023Z,0.14
2023-03-05T02:06:46.492Z,0.04
2023-03-05T02:09:12.953Z,0.33
2023-03-05T02:11:39.360Z,-0.10
2023-03-05T02:14:06.636Z,0.23
2023-03-05T02:16:34.217Z,0.04
2023-03-05T02:19:00.663Z,0.19
2023-03-05T02:21:27.091Z,0.29
2023-03-05T02:23:53.545Z,0.22
2023-03-05T02:26:19.939Z,0.26
2023-03-05T02:28:46.422Z,-0.17
2023-03-05T02:31:12.855Z,0.17
2023-03-05T02:33:39.286Z,0.25
2023-03-05T02:36:05.775Z,-0.05
2023-03-05T02:38:32.460Z,0.09
2023-03-05T02:40:58.904Z,-0.07
2023-03-05T02:43:25.335Z,0.17
2023-03-05T02:45:51.785Z,-0.53
2023-03-05T02:48:18.303Z,0.10
2023-03-05T02:50:44.871Z,0.31
2023-03-05T02:53:11.278Z,0.07
2023-03-05T02:55:37.730Z,0.22
2023-03-05T02:58:04.196Z,0.32
2023-03-05T03:00:30.840Z,-0.01
2023-03-05T03:02:57.362Z,0.23
2023-03-05T03:05:23.846Z,0.70
2023-03-05T03:07:50.326Z,0.37
2023-03-05T03:10:16.737Z,0.56
2023-03-05T03:12:43.211Z,0.14
2023-03-05T03:15:09.600Z,0.30
2023-03-05T03:17:37.989Z,0.33
2023-03-05T03:20:04.423Z,0.38
2023-03-05T03:22:30.793Z,0.32
2023-03-05T03:24:57.211Z,0.32
2023-03-05T03:27:23.604Z,0.59
2023-03-05T03:29:50.028Z,0.39
2023-03-05T03:32:16.503Z,0.14
2023-03-05T03:34:42.976Z,0.28
2023-03-05T03:37:09.505Z,0.24
2023-03-05T03:39:35.904Z,0.56
2023-03-05T03:42:02.345Z,0.54
2023-03-05T03:44:28.834Z,0.32
2023-03-05T03:46:55.248Z,0.32
2023-03-05T03:49:21.747Z,0.43
2023-03-05T03:51:48.244Z,0.29
2023-03-05T03:54:14.682Z,0.35
2023-03-05T03:56:41.071Z,0.38
2023-03-05T03:59:07.497Z,0.64
2023-03-05T04:01:34.058Z,0.27
2023-03-05T04:04:00.582Z,0.39
2023-03-05T04:06:26.998Z,0.11
2023-03-05T04:08:53.701Z,0.43
2023-03-05T04:11:20.118Z,0.33
2023-03-05T04:13:46.586Z,0.63
2023-03-05T04:16:13.238Z,0.34
2023-03-05T04:18:39.720Z,0.29
2023-03-05T04:21:06.137Z,-0.58
2023-03-05T04:23:32.553Z,-0.30
2023-03-05T04:25:59.006Z,0.21
2023-03-05T04:28:25.638Z,0.65
2023-03-05T04:30:52.207Z,0.57
2023-03-05T04:33:18.710Z,0.33
2023-03-05T04:35:45.129Z,0.37
2023-03-05T04:38:11.666Z,0.03
2023-03-05T04:40:38.399Z,0.25
2023-03-05T04:43:04.840Z,0.62
2023-03-05T04:45:31.322Z,0.64
2023-03-05T04:47:57.738Z,0.60
2023-03-05T04:50:24.169Z,0.67
2023-03-05T04:52:50.664Z,0.63
2023-03-05T04:55:17.104Z,0.05
2023-03-05T04:57:43.691Z,0.27
2023-03-05T05:00:10.137Z,0.54
2023-03-05T05:02:36.629Z,0.62
2023-03-05T05:05:03.043Z,0.46
2023-03-05T05:07:30.108Z,0.68
2023-03-05T05:09:57.130Z,0.51
2023-03-05T05:12:24.670Z,0.68
2023-03-05T05:14:51.086Z,0.40
2023-03-05T05:17:17.811Z,0.66
2023-03-05T05:19:44.291Z,0.60
2023-03-05T05:22:10.682Z,0.70
2023-03-05T05:24:37.169Z,0.32
2023-03-05T05:27:03.614Z,0.50
2023-03-05T05:29:30.042Z,0.38
2023-03-05T05:31:56.482Z,-0.16
2023-03-05T05:34:22.853Z,0.32
2023-03-05T05:36:49.309Z,0.30
2023-03-05T05:39:15.978Z,0.46
2023-03-05T05:41:42.896Z,0.20
2023-03-05T05:44:09.315Z,0.51
2023-03-05T05:46:35.853Z,0.33
2023-03-05T05:49:02.333Z,0.67
2023-03-05T05:51:28.765Z,0.40
2023-03-05T05:53:55.337Z,0.46
2023-03-05T05:56:21.801Z,0.45
2023-03-05T05:58:48.253Z,0.37
2023-03-05T06:01:14.639Z,0.27
2023-03-05T06:03:41.074Z,0.54
2023-03-05T06:06:07.459Z,0.63
2023-03-05T06:08:33.945Z,0.36
2023-03-05T06:11:00.320Z,0.58
2023-03-05T06:13:28.334Z,0.88
2023-03-05T06:15:54.770Z,0.71
2023-03-05T06:18:21.179Z,0.44
2023-03-05T06:20:48.801Z,0.22
2023-03-05T06:23:15.213Z,0.25
2023-03-05T06:25:41.999Z,-0.01
2023-03-05T06:28:09.425Z,-0.01
2023-03-05T06:30:35.985Z,-0.45
2023-03-05T06:33:02.451Z,-0.44
2023-03-05T06:35:29.102Z,0.08
2023-03-05T06:37:55.572Z,0.20
2023-03-05T06:40:22.039Z,0.33
2023-03-05T06:42:48.516Z,0.14
2023-03-05T06:45:14.938Z,0.01
2023-03-05T06:47:41.622Z,0.38
2023-03-05T06:50:08.111Z,0.61
2023-03-05T06:52:34.489Z,0.51
2023-03-05T06:55:00.996Z,0.76
2023-03-05T06:57:27.414Z,0.15
2023-03-05T06:59:54.227Z,0.41
2023-03-05T07:02:20.813Z,0.69
2023-03-05T07:04:47.368Z,0.87
2023-03-05T07:07:13.848Z,0.76
2023-03-05T07:09:40.237Z,0.62
2023-03-05T07:12:06.684Z,0.80
2023-03-05T07:14:33.132Z,0.18
2023-03-05T07:16:59.624Z,0.32
2023-03-05T07:19:26.058Z,0.33
2023-03-05T07:21:52.617Z,0.00
2023-03-05T07:24:18.977Z,0.27
2023-03-05T07:26:46.931Z,0.35
2023-03-05T07:29:14.452Z,0.69
2023-03-05T07:31:41.128Z,0.40
2023-03-05T07:34:07.488Z,0.42
2023-03-05T07:36:33.966Z,0.36
2023-03-05T07:39:00.406Z,0.14
2023-03-05T07:41:26.897Z,0.26
2023-03-05T07:43:53.443Z,0.67
2023-03-05T07:46:19.926Z,0.74
2023-03-05T07:48:46.556Z,0.76
2023-03-05T07:51:13.325Z,0.99
2023-03-05T07:53:39.710Z,0.53
2023-03-05T07:56:06.168Z,0.62
2023-03-05T07:58:32.637Z,1.06
2023-03-05T08:00:59.145Z,0.71
2023-03-05T08:03:26.126Z,0.66
2023-03-05T08:05:52.550Z,0.61
2023-03-05T08:08:18.990Z,0.07
2023-03-05T08:10:45.473Z,0.68
2023-03-05T08:13:12.208Z,0.56
2023-03-05T08:15:38.740Z,0.33
2023-03-05T08:18:05.177Z,0.23
2023-03-05T08:20:31.626Z,0.72
2023-03-05T08:22:58.124Z,0.35
2023-03-05T08:25:26.956Z,0.46
2023-03-05T08:27:54.479Z,0.72
2023-03-05T08:30:20.865Z,1.11
2023-03-05T08:32:47.391Z,1.11
2023-03-05T08:35:13.819Z,0.81
2023-03-05T08:37:40.401Z,0.90
2023-03-05T08:40:06.916Z,0.99
2023-03-05T08:42:33.524Z,0.85
2023-03-05T08:45:00.012Z,0.70
2023-03-05T08:47:26.614Z,1.02
2023-03-05T08:49:53.032Z,0.99
2023-03-05T08:52:19.510Z,1.22
2023-03-05T08:54:45.971Z,1.23
2023-03-05T08:57:12.757Z,1.09
2023-03-05T08:59:39.188Z,0.93
2023-03-05T09:02:05.958Z,0.61
2023-03-05T09:04:32.468Z,1.09
2023-03-05T09:06:59.058Z,1.00
2023-03-05T09:09:25.690Z,1.02
2023-03-05T09:11:52.273Z,1.17
2023-03-05T09:14:18.970Z,1.41
2023-03-05T09:16:45.892Z,1.01
2023-03-05T09:19:14.935Z,1.47
2023-03-05T09:21:41.411Z,1.86
2023-03-05T09:24:07.853Z,2.01
2023-03-05T09:26:34.359Z,0.92
2023-03-05T09:29:01.001Z,1.58
2023-03-05T09:31:28.705Z,1.56
2023-03-05T09:33:55.238Z,2.03
2023-03-05T09:36:21.776Z,1.79
2023-03-05T09:38:48.244Z,2.08
2023-03-05T09:41:14.645Z,2.11
2023-03-05T09:43:41.105Z,2.14
2023-03-05T09:46:07.600Z,1.34
2023-03-05T09:48:34.089Z,1.33
2023-03-05T09:51:02.984Z,1.71
2023-03-05T09:53:29.470Z,1.62
2023-03-05T09:55:55.993Z,1.81
2023-03-05T09:58:22.492Z,1.78
2023-03-05T10:00:48.861Z,1.87
2023-03-05T10:03:15.864Z,2.10
2023-03-05T10:05:42.345Z,1.77
2023-03-05T10:08:08.777Z,1.65
2023-03-05T10:10:35.201Z,1.63
2023-03-05T10:13:01.597Z,1.76
2023-03-05T10:15:28.007Z,1.83
2023-03-05T10:17:54.401Z,1.69
2023-03-05T10:20:20.842Z,2.00
2023-03-05T10:22:47.369Z,1.88
2023-03-05T10:25:13.739Z,1.92
2023-03-05T10:27:40.226Z,2.14
2023-03-05T10:30:06.955Z,2.48
2023-03-05T10:32:33.493Z,2.11
2023-03-05T10:35:01.316Z,1.88
2023-03-05T10:37:30.391Z,2.21
2023-03-05T10:39:56.815Z,2.36
2023-03-05T10:42:23.209Z,2.73
2023-03-05T10:44:50.045Z,2.30
2023-03-05T10:47:16.823Z,2.63
2023-03-05T10:49:43.473Z,2.37
2023-03-05T10:52:10.476Z,2.42
2023-03-05T10:54:36.932Z,2.65
2023-03-05T10:57:03.344Z,2.65
2023-03-05T10:59:30.061Z,2.17
2023-03-05T11:01:56.804Z,1.77
2023-03-05T11:04:23.317Z,1.70
2023-03-05T11:06:49.861Z,1.57
2023-03-05T11:09:16.262Z,2.24
2023-03-05T11:11:42.928Z,2.33
2023-03-05T11:14:09.544Z,2.58
2023-03-05T11:16:36.071Z,2.53
2023-03-05T11:19:02.715Z,2.63
2023-03-05T11:21:29.328Z,2.69
2023-03-05T11:23:55.746Z,2.12
2023-03-05T11:26:22.581Z,2.92
2023-03-05T11:28:49.067Z,2.97
2023-03-05T11:31:16.271Z,2.90
2023-03-05T11:33:43.127Z,2.89
2023-03-05T11:36:09.783Z,3.15
2023-03-05T11:38:36.234Z,3.19
2023-03-05T11:41:03.183Z,2.52
2023-03-05T11:43:30.373Z,2.97
2023-03-05T11:45:56.789Z,2.61
2023-03-05T11:48:23.509Z,2.62
2023-03-05T11:50:50.064Z,2.25
2023-03-05T11:53:16.652Z,2.36
2023-03-05T11:55:43.562Z,2.41
2023-03-05T11:58:10.091Z,2.12
2023-03-05T12:00:36.976Z,2.11
2023-03-05T12:03:03.402Z,2.21
2023-03-05T12:05:29.880Z,2.45
2023-03-05T12:07:56.822Z,2.26
2023-03-05T12:10:24.310Z,1.52
2023-03-05T12:12:51.056Z,1.88
2023-03-05T12:15:17.897Z,2.31
2023-03-05T12:17:46.035Z,1.88
2023-03-05T12:20:12.616Z,2.16
2023-03-05T12:22:39.695Z,2.16
2023-03-05T12:25:06.636Z,2.30
2023-03-05T12:27:33.348Z,2.40
2023-03-05T12:30:02.183Z,2.72
2023-03-05T12:32:28.739Z,2.77
2023-03-05T12:34:55.222Z,2.83
2023-03-05T12:37:22.061Z,2.69
2023-03-05T12:39:48.621Z,1.88
2023-03-05T12:42:15.179Z,1.53
2023-03-05T12:44:41.918Z,1.35
2023-03-05T12:47:09.034Z,1.61
2023-03-05T12:49:36.104Z,1.58
2023-03-05T12:52:02.530Z,1.19
2023-03-05T12:54:29.114Z,1.54
2023-03-05T12:56:55.712Z,1.78
2023-03-05T12:59:22.187Z,1.53
2023-03-05T13:01:48.789Z,1.69
2023-03-05T13:04:15.617Z,1.57
2023-03-05T13:06:42.580Z,1.63
2023-03-05T13:09:09.536Z,1.46
2023-03-05T13:11:36.488Z,0.98
2023-03-05T13:14:03.657Z,1.58
2023-03-05T13:16:32.694Z,1.27
2023-03-05T13:18:59.339Z,1.16
2023-03-05T13:21:26.091Z,1.67
2023-03-05T13:23:52.584Z,1.64
2023-03-05T13:26:19.091Z,1.53
2023-03-05T13:28:45.561Z,1.59
2023-03-05T13:31:12.918Z,1.24
2023-03-05T13:33:40.510Z,1.44
2023-03-05T13:36:07.342Z,1.19
2023-03-05T13:38:34.296Z,1.54
2023-03-05T13:41:01.410Z,1.70
2023-03-05T13:43:28.930Z,1.67
2023-03-05T13:45:55.707Z,1.69
2023-03-05T13:48:23.586Z,1.49
2023-03-05T13:50:50.513Z,1.59
2023-03-05T13:53:18.055Z,1.99
2023-03-05T13:55:44.699Z,1.88
2023-03-05T13:58:11.570Z,1.45
2023-03-05T14:00:38.234Z,1.66
2023-03-05T14:03:05.018Z,1.89
2023-03-05T14:05:31.497Z,1.41
2023-03-05T14:07:58.800Z,2.16
2023-03-05T14:10:25.993Z,1.69
2023-03-05T14:12:54.209Z,2.11
2023-03-05T14:15:21.212Z,2.00
2023-03-05T14:17:48.839Z,1.73
2023-03-05T14:20:16.738Z,1.94
2023-03-05T14:22:43.663Z,1.89
2023-03-05T14:25:10.604Z,2.17
2023-03-05T14:27:37.258Z,1.97
2023-03-05T14:30:04.992Z,2.08
2023-03-05T14:32:32.032Z,1.93
2023-03-05T14:34:59.464Z,1.85
2023-03-05T14:37:26.744Z,1.92
2023-03-05T14:39:53.716Z,1.92
2023-03-05T14:42:20.776Z,2.23
2023-03-05T14:44:47.695Z,2.23
2023-03-05T14:47:14.656Z,2.28
2023-03-05T14:49:41.736Z,2.30
2023-03-05T14:52:08.214Z,2.21
2023-03-05T14:54:35.176Z,2.36
2023-03-05T14:57:09.561Z,1.96
2023-03-05T14:59:36.824Z,2.07
2023-03-05T15:02:03.967Z,1.94
2023-03-05T15:04:31.307Z,1.92
2023-03-05T15:06:58.447Z,1.97
2023-03-05T15:09:26.027Z,2.45
2023-03-05T15:11:53.006Z,2.46
2023-03-05T15:14:20.145Z,2.21
2023-03-05T15:16:47.120Z,2.35
2023-03-05T15:19:13.901Z,2.21
2023-03-05T15:21:40.895Z,2.29
2023-03-05T15:24:09.168Z,2.50
2023-03-05T15:26:37.073Z,2.43
2023-03-05T15:29:04.206Z,2.23
2023-03-05T15:31:31.729Z,2.48
2023-03-05T15:33:58.847Z,1.83
2023-03-05T15:36:25.552Z,1.87
2023-03-05T15:38:52.094Z,1.58
2023-03-05T15:41:19.633Z,1.61
2023-03-05T15:43:46.849Z,0.80
2023-03-05T15:46:14.047Z,1.23
2023-03-05T15:48:42.575Z,1.72
2023-03-05T15:51:11.044Z,1.96
2023-03-05T15:53:38.016Z,1.97
2023-03-05T15:56:05.271Z,2.30
2023-03-05T15:58:32.337Z,2.04
2023-03-05T16:00:59.708Z,1.96
2023-03-05T16:03:26.601Z,2.31
2023-03-05T16:05:53.568Z,1.76
2023-03-05T16:08:20.735Z,1.26
2023-03-05T16:10:47.916Z,1.85
2023-03-05T16:13:15.892Z,2.13
2023-03-05T16:15:43.063Z,2.42
2023-03-05T16:18:10.499Z,2.01
2023-03-05T16:20:40.082Z,1.65
2023-03-05T16:23:07.416Z,1.96
2023-03-05T16:25:33.923Z,2.36
2023-03-05T16:28:00.902Z,2.05
2023-03-05T16:30:28.029Z,2.00
2023-03-05T16:32:55.751Z,2.29
2023-03-05T16:35:22.801Z,1.93
2023-03-05T16:37:49.807Z,2.11
2023-03-05T16:40:17.140Z,2.33
2023-03-05T16:42:46.717Z,2.35
2023-03-05T16:45:13.899Z,2.27
2023-03-05T16:47:40.866Z,2.50
2023-03-05T16:50:07.914Z,2.40
2023-03-05T16:52:34.909Z,2.36
2023-03-05T16:55:02.558Z,2.20
2023-03-05T16:57:29.933Z,1.82
2023-03-05T16:59:56.507Z,1.41
2023-03-05T17:02:23.355Z,1.44
2023-03-05T17:04:50.583Z,1.42
2023-03-05T17:07:17.399Z,1.76
2023-03-05T17:09:44.549Z,1.70
2023-03-05T17:12:12.300Z,1.19
2023-03-05T17:14:39.505Z,1.65
2023-03-05T17:17:06.197Z,1.43
2023-03-05T17:19:33.211Z,1.54
2023-03-05T17:22:00.212Z,1.46
2023-03-05T17:24:27.166Z,1.97
2023-03-05T17:26:56.723Z,2.38
2023-03-05T17:29:23.739Z,2.19
2023-03-05T17:31:50.638Z,2.40
2023-03-05T17:34:18.391Z,2.56
2023-03-05T17:36:47.351Z,2.48
2023-03-05T17:39:14.323Z,2.53
2023-03-05T17:41:41.928Z,2.49
2023-03-05T17:44:09.496Z,2.68
2023-03-05T17:46:36.622Z,2.77
2023-03-05T17:49:04.144Z,2.87
2023-03-05T17:51:30.940Z,3.03
2023-03-05T17:54:00.767Z,3.05
2023-03-05T17:56:27.865Z,3.09
2023-03-05T17:58:55.376Z,2.98
2023-03-05T18:01:25.039Z,2.45
2023-03-05T18:03:52.134Z,2.70
2023-03-05T18:06:22.075Z,2.51
2023-03-05T18:08:49.242Z,2.49
2023-03-05T18:11:16.429Z,2.61
2023-03-05T18:13:43.819Z,2.38
2023-03-05T18:16:10.870Z,2.15
2023-03-05T18:18:38.333Z,2.41
2023-03-05T18:21:05.553Z,2.46
2023-03-05T18:23:32.527Z,2.45
2023-03-05T18:25:59.837Z,2.40
2023-03-05T18:28:27.016Z,2.26
2023-03-05T18:30:54.309Z,2.49
2023-03-05T18:33:24.129Z,1.91
2023-03-05T18:35:51.320Z,2.24
2023-03-05T18:38:17.862Z,2.29
2023-03-05T18:40:44.936Z,2.21
2023-03-05T18:43:11.955Z,2.27
2023-03-05T18:45:38.654Z,2.25
2023-03-05T18:48:05.486Z,1.93
2023-03-05T18:50:32.642Z,1.88
2023-03-05T18:53:00.976Z,1.84
2023-03-05T18:55:28.057Z,2.09
2023-03-05T18:57:55.710Z,1.85
2023-03-05T19:00:22.986Z,1.91
2023-03-05T19:02:51.449Z,2.07
2023-03-05T19:05:18.945Z,1.93
2023-03-05T19:07:47.283Z,1.78
2023-03-05T19:10:14.440Z,1.31
2023-03-05T19:12:41.581Z,1.81
2023-03-05T19:15:08.858Z,2.18
2023-03-05T19:17:36.231Z,2.20
2023-03-05T19:20:05.358Z,2.13
2023-03-05T19:22:32.053Z,2.35
2023-03-05T19:24:59.070Z,2.58
2023-03-05T19:27:26.156Z,2.53
2023-03-05T19:29:53.868Z,2.62
2023-03-05T19:32:23.821Z,2.32
2023-03-05T19:34:50.974Z,2.36
2023-03-05T19:37:18.322Z,2.45
2023-03-05T19:39:46.299Z,2.51
2023-03-05T19:42:13.595Z,2.87
2023-03-05T19:44:41.285Z,2.98
2023-03-05T19:47:08.269Z,2.94
2023-03-05T19:49:39.760Z,2.80
2023-03-05T19:52:06.479Z,2.58
2023-03-05T19:54:33.521Z,1.93
2023-03-05T19:57:00.900Z,2.30
2023-03-05T19:59:28.312Z,2.41
2023-03-05T20:01:55.370Z,2.79
2023-03-05T20:04:22.354Z,3.23
2023-03-05T20:06:49.423Z,2.97
2023-03-05T20:09:16.609Z,2.99
2023-03-05T20:11:43.426Z,2.71
2023-03-05T20:14:11.751Z,2.91
2023-03-05T20:16:38.655Z,2.93
2023-03-05T20:19:05.884Z,2.51
2023-03-05T20:21:33.076Z,2.62
2023-03-05T20:24:00.334Z,2.78
2023-03-05T20:26:27.592Z,2.82
2023-03-05T20:28:54.613Z,2.72
2023-03-05T20:31:22.345Z,2.76
2023-03-05T20:33:49.692Z,2.76
2023-03-05T20:36:16.724Z,2.74
2023-03-05T20:38:44.849Z,2.78
2023-03-05T20:41:12.821Z,2.80
2023-03-05T20:43:39.933Z,2.78
2023-03-05T20:46:07.045Z,2.84
2023-03-05T20:48:34.192Z,2.98
2023-03-05T20:51:01.119Z,2.87
2023-03-05T20:53:28.899Z,2.79
2023-03-05T20:55:56.010Z,2.66
2023-03-05T20:58:23.000Z,2.76
2023-03-05T21:03:40.548Z,2.46
2023-03-05T21:06:07.534Z,2.45
2023-03-05T21:08:34.542Z,2.22
2023-03-05T21:11:01.759Z,2.34
2023-03-05T21:13:28.594Z,2.36
2023-03-05T21:15:55.742Z,2.50
2023-03-05T21:18:22.633Z,2.60
2023-03-05T21:20:49.550Z,2.58
2023-03-05T21:23:16.572Z,2.46
2023-03-05T21:25:43.403Z,2.24
2023-03-05T21:28:10.416Z,2.40
2023-03-05T21:30:36.923Z,2.52
2023-03-05T21:33:03.360Z,2.64
2023-03-05T21:35:30.082Z,2.70
2023-03-05T21:37:56.649Z,2.63
2023-03-05T21:40:23.548Z,2.63
2023-03-05T21:42:50.417Z,2.68
2023-03-05T21:45:18.013Z,2.71
2023-03-05T21:47:44.631Z,2.64
2023-03-05T21:50:11.235Z,2.57
2023-03-05T21:52:37.957Z,2.60
2023-03-05T21:55:05.567Z,2.61
2023-03-05T21:57:32.172Z,2.64
2023-03-05T21:59:58.667Z,2.68
2023-03-05T22:02:25.344Z,2.71
2023-03-05T22:04:52.034Z,2.70
2023-03-05T22:07:18.568Z,2.74
2023-03-05T22:09:45.372Z,2.78
2023-03-05T22:12:11.945Z,2.70
2023-03-05T22:14:38.525Z,2.65
2023-03-05T22:17:04.998Z,2.59
2023-03-05T22:19:31.461Z,2.59
2023-03-05T22:21:57.882Z,2.65
2023-03-05T22:24:24.451Z,2.68
2023-03-05T22:26:50.892Z,2.68
2023-03-05T22:29:17.283Z,2.59
2023-03-05T22:31:43.785Z,2.64
2023-03-05T22:34:10.341Z,2.65
2023-03-05T22:36:36.781Z,2.61
2023-03-05T22:39:03.319Z,2.58
2023-03-05T22:41:30.039Z,2.58
2023-03-05T22:43:56.533Z,2.58
2023-03-05T22:46:23.402Z,2.56
2023-03-05T22:48:49.902Z,2.59
2023-03-05T22:51:16.339Z,2.62
2023-03-05T22:53:42.785Z,2.67
2023-03-05T22:56:09.249Z,2.80
2023-03-05T22:58:35.875Z,2.93
2023-03-05T23:01:02.643Z,3.02
2023-03-05T23:03:29.235Z,2.68
2023-03-05T23:05:55.669Z,2.78
2023-03-05T23:08:22.984Z,2.87
2023-03-05T23:10:49.432Z,2.97
2023-03-05T23:13:15.874Z,2.93
2023-03-05T23:15:42.455Z,2.97
2023-03-05T23:18:08.958Z,2.93
2023-03-05T23:20:35.398Z,2.76
2023-03-05T23:23:01.877Z,2.67
2023-03-05T23:25:28.852Z,2.44
2023-03-05T23:27:55.293Z,2.49
2023-03-05T23:30:21.990Z,2.60
2023-03-05T23:32:48.412Z,2.28
2023-03-05T23:35:15.251Z,2.13
2023-03-05T23:37:42.213Z,2.17
2023-03-05T23:40:08.762Z,2.27
2023-03-05T23:42:35.234Z,2.36
2023-03-05T23:45:01.933Z,2.13
2023-03-05T23:47:28.327Z,2.12
2023-03-05T23:49:54.715Z,2.22
2023-03-05T23:52:21.146Z,2.37
2023-03-05T23:54:47.643Z,2.07
2023-03-05T23:57:14.069Z,2.30
2023-03-05T23:59:40.499Z,2.17
